sensor_id;sensor_type;location;lat;lon;timestamp;pressure;altitude;pressure_sealevel;temperature;humidity
17764;BME280;22245;52.832;13.816;2024-01-15T00:00:24;99001.03;;;1.34;100.00
17764;BME280;22245;52.832;13.816;2024-01-15T00:03:46;98986.75;;;1.38;100.00
17764;BME280;22245;52.832;13.816;2024-01-15T00:07:08;98980.31;;;1.42;100.00
17764;BME280;22245;52.832;13.816;2024-01-15T00:10:30;98969.09;;;1.40;100.00
17764;BME280;22245;52.832;13.816;2024-01-15T00:13:53;98969.47;;;1.35;100.00
17764;BME280;22245;52.832;13.816;2024-01-15T00:17:14;98952.06;;;1.34;100.00
17764;BME280;22245;52.832;13.816;2024-01-15T00:20:36;98938.72;;;1.37;100.00
17764;BME280;22245;52.832;13.816;2024-01-15T00:23:57;98948.13;;;1.40;100.00
17764;BME280;22245;52.832;13.816;2024-01-15T00:27:18;98933.56;;;1.36;100.00
17764;BME280;22245;52.832;13.816;2024-01-15T00:30:42;98932.38;;;1.40;100.00
17764;BME280;22245;52.832;13.816;2024-01-15T00:34:03;98932.03;;;1.33;100.00
17764;BME280;22245;52.832;13.816;2024-01-15T00:37:25;98920.78;;;1.31;100.00
17764;BME280;22245;52.832;13.816;2024-01-15T00:40:47;98920.19;;;1.27;100.00
17764;BME280;22245;52.832;13.816;2024-01-15T00:44:09;98911.97;;;1.32;100.00
17764;BME280;22245;52.832;13.816;2024-01-15T00:47:31;98910.66;;;1.26;100.00
17764;BME280;22245;52.832;13.816;2024-01-15T00:50:53;98905.06;;;1.31;100.00
17764;BME280;22245;52.832;13.816;2024-01-15T00:54:15;98897.56;;;1.26;100.00
17764;BME280;22245;52.832;13.816;2024-01-15T00:57:37;98895.41;;;1.20;100.00
17764;BME280;22245;52.832;13.816;2024-01-15T01:00:58;98890.03;;;1.22;100.00
17764;BME280;22245;52.832;13.816;2024-01-15T01:04:21;98896.78;;;1.13;100.00
17764;BME280;22245;52.832;13.816;2024-01-15T01:07:43;98886.53;;;1.10;100.00
17764;BME280;22245;52.832;13.816;2024-01-15T01:11:04;98885.50;;;1.12;100.00
17764;BME280;22245;52.832;13.816;2024-01-15T01:14:27;98888.44;;;1.08;100.00
17764;BME280;22245;52.832;13.816;2024-01-15T01:17:48;98886.06;;;1.05;100.00
17764;BME280;22245;52.832;13.816;2024-01-15T01:21:11;98883.91;;;0.98;100.00
17764;BME280;22245;52.832;13.816;2024-01-15T01:24:33;98881.06;;;1.01;100.00
17764;BME280;22245;52.832;13.816;2024-01-15T01:27:54;98867.22;;;0.99;100.00
17764;BME280;22245;52.832;13.816;2024-01-15T01:31:16;98879.28;;;1.02;100.00
17764;BME280;22245;52.832;13.816;2024-01-15T01:34:40;98878.91;;;0.95;100.00
17764;BME280;22245;52.832;13.816;2024-01-15T01:38:03;98883.41;;;0.93;100.00
17764;BME280;22245;52.832;13.816;2024-01-15T01:41:25;98883.75;;;0.89;100.00
17764;BME280;22245;52.832;13.816;2024-01-15T01:44:46;98885.66;;;0.86;100.00
17764;BME280;22245;52.832;13.816;2024-01-15T01:48:07;98876.75;;;0.89;100.00
17764;BME280;22245;52.832;13.816;2024-01-15T01:51:29;98881.50;;;0.84;100.00
17764;BME280;22245;52.832;13.816;2024-01-15T01:54:52;98868.41;;;0.84;100.00
17764;BME280;22245;52.832;13.816;2024-01-15T01:58:15;98878.03;;;0.83;100.00
17764;BME280;22245;52.832;13.816;2024-01-15T02:01:37;98870.28;;;0.82;100.00
17764;BME280;22245;52.832;13.816;2024-01-15T02:04:59;98875.25;;;0.74;100.00
17764;BME280;22245;52.832;13.816;2024-01-15T02:08:21;98872.91;;;0.82;100.00
17764;BME280;22245;52.832;13.816;2024-01-15T02:11:46;98865.06;;;0.82;100.00
17764;BME280;22245;52.832;13.816;2024-01-15T02:15:07;98850.53;;;0.78;100.00
17764;BME280;22245;52.832;13.816;2024-01-15T02:18:39;98843.47;;;0.78;100.00
17764;BME280;22245;52.832;13.816;2024-01-15T02:22:01;98852.38;;;0.76;100.00
17764;BME280;22245;52.832;13.816;2024-01-15T02:25:24;98853.34;;;0.75;100.00
17764;BME280;22245;52.832;13.816;2024-01-15T02:28:46;98871.59;;;0.76;100.00
17764;BME280;22245;52.832;13.816;2024-01-15T02:32:08;98845.72;;;0.71;100.00
17764;BME280;22245;52.832;13.816;2024-01-15T02:35:30;98852.84;;;0.69;100.00
17764;BME280;22245;52.832;13.816;2024-01-15T02:38:51;98839.03;;;0.67;100.00
17764;BME280;22245;52.832;13.816;2024-01-15T02:42:14;98837.13;;;0.69;100.00
17764;BME280;22245;52.832;13.816;2024-01-15T02:45:36;98835.69;;;0.65;100.00
17764;BME280;22245;52.832;13.816;2024-01-15T02:48:58;98833.78;;;0.67;100.00
17764;BME280;22245;52.832;13.816;2024-01-15T02:52:20;98840.69;;;0.68;100.00
17764;BME280;22245;52.832;13.816;2024-01-15T02:55:41;98835.00;;;0.75;100.00
17764;BME280;22245;52.832;13.816;2024-01-15T02:59:04;98824.31;;;0.78;100.00
17764;BME280;22245;52.832;13.816;2024-01-15T03:02:26;98818.69;;;0.82;100.00
17764;BME280;22245;52.832;13.816;2024-01-15T03:05:47;98812.88;;;0.79;100.00
17764;BME280;22245;52.832;13.816;2024-01-15T03:09:09;98817.88;;;0.82;99.83
17764;BME280;22245;52.832;13.816;2024-01-15T03:12:31;98804.16;;;0.78;99.54
17764;BME280;22245;52.832;13.816;2024-01-15T03:15:53;98801.31;;;0.81;100.00
17764;BME280;22245;52.832;13.816;2024-01-15T03:19:15;98795.34;;;0.79;100.00
17764;BME280;22245;52.832;13.816;2024-01-15T03:22:37;98795.97;;;0.83;99.50
17764;BME280;22245;52.832;13.816;2024-01-15T03:25:58;98792.50;;;0.82;99.22
17764;BME280;22245;52.832;13.816;2024-01-15T03:29:20;98780.97;;;0.85;100.00
17764;BME280;22245;52.832;13.816;2024-01-15T03:32:43;98782.63;;;0.86;99.21
17764;BME280;22245;52.832;13.816;2024-01-15T03:36:05;98774.16;;;0.82;98.91
17764;BME280;22245;52.832;13.816;2024-01-15T03:39:27;98773.34;;;0.82;98.72
17764;BME280;22245;52.832;13.816;2024-01-15T03:42:49;98766.19;;;0.84;98.05
17764;BME280;22245;52.832;13.816;2024-01-15T03:46:11;98770.25;;;0.77;98.48
17764;BME280;22245;52.832;13.816;2024-01-15T03:49:34;98758.44;;;0.82;99.42
17764;BME280;22245;52.832;13.816;2024-01-15T03:52:55;98753.31;;;0.92;98.71
17764;BME280;22245;52.832;13.816;2024-01-15T03:56:17;98752.72;;;0.89;98.71
17764;BME280;22245;52.832;13.816;2024-01-15T03:59:40;98747.47;;;0.89;98.44
17764;BME280;22245;52.832;13.816;2024-01-15T04:03:02;98747.84;;;0.95;98.18
17764;BME280;22245;52.832;13.816;2024-01-15T04:06:25;98741.41;;;0.88;96.92
17764;BME280;22245;52.832;13.816;2024-01-15T04:09:47;98735.06;;;0.91;96.76
17764;BME280;22245;52.832;13.816;2024-01-15T04:13:08;98732.81;;;0.97;96.90
17764;BME280;22245;52.832;13.816;2024-01-15T04:16:30;98745.81;;;0.99;95.24
17764;BME280;22245;52.832;13.816;2024-01-15T04:19:51;98735.91;;;1.03;94.69
17764;BME280;22245;52.832;13.816;2024-01-15T04:23:14;98735.22;;;1.00;94.96
17764;BME280;22245;52.832;13.816;2024-01-15T04:26:35;98731.28;;;1.06;94.68
17764;BME280;22245;52.832;13.816;2024-01-15T04:29:57;98734.63;;;1.08;94.14
17764;BME280;22245;52.832;13.816;2024-01-15T04:33:18;98720.78;;;1.06;94.43
17764;BME280;22245;52.832;13.816;2024-01-15T04:36:40;98706.84;;;1.06;95.16
17764;BME280;22245;52.832;13.816;2024-01-15T04:40:04;98733.19;;;1.04;96.34
17764;BME280;22245;52.832;13.816;2024-01-15T04:43:25;98731.63;;;1.01;96.29
17764;BME280;22245;52.832;13.816;2024-01-15T04:46:47;98723.06;;;0.99;97.62
17764;BME280;22245;52.832;13.816;2024-01-15T04:50:09;98706.84;;;0.94;96.94
17764;BME280;22245;52.832;13.816;2024-01-15T04:53:30;98728.28;;;0.99;96.74
17764;BME280;22245;52.832;13.816;2024-01-15T04:56:53;98707.94;;;1.03;95.13
17764;BME280;22245;52.832;13.816;2024-01-15T05:00:15;98704.22;;;1.06;95.14
17764;BME280;22245;52.832;13.816;2024-01-15T05:03:36;98693.97;;;1.03;94.33
17764;BME280;22245;52.832;13.816;2024-01-15T05:06:58;98693.72;;;1.06;92.95
17764;BME280;22245;52.832;13.816;2024-01-15T05:10:20;98704.59;;;1.01;94.14
17764;BME280;22245;52.832;13.816;2024-01-15T05:13:42;98717.81;;;0.99;96.84
17764;BME280;22245;52.832;13.816;2024-01-15T05:17:04;98706.75;;;0.96;97.25
17764;BME280;22245;52.832;13.816;2024-01-15T05:20:30;98708.63;;;0.94;97.77
17764;BME280;22245;52.832;13.816;2024-01-15T05:23:52;98695.41;;;0.95;97.44
17764;BME280;22245;52.832;13.816;2024-01-15T05:27:13;98693.50;;;0.97;98.20
17764;BME280;22245;52.832;13.816;2024-01-15T05:30:36;98687.91;;;1.02;97.69
17764;BME280;22245;52.832;13.816;2024-01-15T05:33:58;98673.47;;;1.08;96.89
17764;BME280;22245;52.832;13.816;2024-01-15T05:37:20;98688.16;;;0.99;96.77
17764;BME280;22245;52.832;13.816;2024-01-15T05:40:42;98701.97;;;1.01;96.50
17764;BME280;22245;52.832;13.816;2024-01-15T05:44:04;98693.88;;;1.04;96.31
17764;BME280;22245;52.832;13.816;2024-01-15T05:47:27;98674.56;;;1.05;95.95
17764;BME280;22245;52.832;13.816;2024-01-15T05:50:48;98686.81;;;1.05;96.43
17764;BME280;22245;52.832;13.816;2024-01-15T05:54:10;98676.81;;;1.10;96.57
17764;BME280;22245;52.832;13.816;2024-01-15T05:57:31;98675.38;;;1.06;96.93
17764;BME280;22245;52.832;13.816;2024-01-15T06:00:52;98679.19;;;1.01;99.04
17764;BME280;22245;52.832;13.816;2024-01-15T06:04:15;98679.69;;;0.95;100.00
17764;BME280;22245;52.832;13.816;2024-01-15T06:07:37;98672.88;;;0.93;100.00
17764;BME280;22245;52.832;13.816;2024-01-15T06:10:58;98696.47;;;0.93;100.00
17764;BME280;22245;52.832;13.816;2024-01-15T06:14:21;98689.22;;;0.96;100.00
17764;BME280;22245;52.832;13.816;2024-01-15T06:17:43;98679.69;;;0.95;100.00
17764;BME280;22245;52.832;13.816;2024-01-15T06:21:06;98692.09;;;0.93;98.45
17764;BME280;22245;52.832;13.816;2024-01-15T06:24:28;98689.13;;;0.98;97.45
17764;BME280;22245;52.832;13.816;2024-01-15T06:27:49;98680.16;;;1.00;96.85
17764;BME280;22245;52.832;13.816;2024-01-15T06:31:11;98686.09;;;1.03;95.53
17764;BME280;22245;52.832;13.816;2024-01-15T06:34:32;98677.91;;;1.07;95.49
17764;BME280;22245;52.832;13.816;2024-01-15T06:37:55;98677.91;;;1.07;94.51
17764;BME280;22245;52.832;13.816;2024-01-15T06:41:16;98667.97;;;1.11;94.97
17764;BME280;22245;52.832;13.816;2024-01-15T06:44:37;98685.63;;;1.09;95.96
17764;BME280;22245;52.832;13.816;2024-01-15T06:47:59;98692.44;;;1.00;100.00
17764;BME280;22245;52.832;13.816;2024-01-15T06:51:20;98684.31;;;0.92;100.00
17764;BME280;22245;52.832;13.816;2024-01-15T06:54:43;98702.34;;;0.85;100.00
17764;BME280;22245;52.832;13.816;2024-01-15T06:58:05;98695.19;;;0.87;99.96
17764;BME280;22245;52.832;13.816;2024-01-15T07:01:27;98713.06;;;0.93;98.02
17764;BME280;22245;52.832;13.816;2024-01-15T07:04:48;98733.78;;;0.96;97.22
17764;BME280;22245;52.832;13.816;2024-01-15T07:08:10;98729.84;;;0.91;99.77
17764;BME280;22245;52.832;13.816;2024-01-15T07:11:32;98725.31;;;0.81;100.00
17764;BME280;22245;52.832;13.816;2024-01-15T07:14:54;98737.47;;;0.82;100.00
17764;BME280;22245;52.832;13.816;2024-01-15T07:18:16;98714.00;;;0.81;100.00
17764;BME280;22245;52.832;13.816;2024-01-15T07:21:37;98732.34;;;0.81;100.00
17764;BME280;22245;52.832;13.816;2024-01-15T07:25:00;98740.31;;;0.79;99.69
17764;BME280;22245;52.832;13.816;2024-01-15T07:28:23;98729.03;;;0.79;99.26
17764;BME280;22245;52.832;13.816;2024-01-15T07:31:48;98744.03;;;0.77;100.00
17764;BME280;22245;52.832;13.816;2024-01-15T07:35:10;98737.38;;;0.84;98.39
17764;BME280;22245;52.832;13.816;2024-01-15T07:38:31;98736.88;;;0.90;98.90
17764;BME280;22245;52.832;13.816;2024-01-15T07:41:53;98748.69;;;0.96;98.45
17764;BME280;22245;52.832;13.816;2024-01-15T07:45:16;98753.56;;;1.00;97.99
17764;BME280;22245;52.832;13.816;2024-01-15T07:48:37;98739.63;;;1.00;97.82
17764;BME280;22245;52.832;13.816;2024-01-15T07:51:59;98754.28;;;1.03;97.41
17764;BME280;22245;52.832;13.816;2024-01-15T07:55:21;98741.16;;;1.03;98.61
17764;BME280;22245;52.832;13.816;2024-01-15T07:58:43;98758.56;;;1.04;98.13
17764;BME280;22245;52.832;13.816;2024-01-15T08:02:06;98755.84;;;1.05;98.44
17764;BME280;22245;52.832;13.816;2024-01-15T08:05:27;98751.19;;;0.97;99.14
17764;BME280;22245;52.832;13.816;2024-01-15T08:08:48;98765.84;;;1.00;99.06
17764;BME280;22245;52.832;13.816;2024-01-15T08:12:10;98754.41;;;1.01;99.74
17764;BME280;22245;52.832;13.816;2024-01-15T08:15:33;98767.13;;;1.06;99.84
17764;BME280;22245;52.832;13.816;2024-01-15T08:18:56;98760.94;;;1.07;98.63
17764;BME280;22245;52.832;13.816;2024-01-15T08:22:18;98766.91;;;1.09;98.80
17764;BME280;22245;52.832;13.816;2024-01-15T08:25:39;98764.28;;;1.09;96.99
17764;BME280;22245;52.832;13.816;2024-01-15T08:29:00;98755.44;;;1.10;96.75
17764;BME280;22245;52.832;13.816;2024-01-15T08:32:22;98752.47;;;1.14;97.25
17764;BME280;22245;52.832;13.816;2024-01-15T08:35:45;98769.88;;;1.15;96.84
17764;BME280;22245;52.832;13.816;2024-01-15T08:39:06;98765.50;;;1.16;97.28
17764;BME280;22245;52.832;13.816;2024-01-15T08:42:29;98768.81;;;1.18;96.74
17764;BME280;22245;52.832;13.816;2024-01-15T08:45:51;98765.09;;;1.21;96.51
17764;BME280;22245;52.832;13.816;2024-01-15T08:49:13;98776.06;;;1.26;96.78
17764;BME280;22245;52.832;13.816;2024-01-15T08:52:36;98775.97;;;1.27;96.21
17764;BME280;22245;52.832;13.816;2024-01-15T08:55:58;98780.81;;;1.32;96.35
17764;BME280;22245;52.832;13.816;2024-01-15T08:59:19;98777.03;;;1.36;95.40
17764;BME280;22245;52.832;13.816;2024-01-15T09:02:46;98787.28;;;1.39;95.13
17764;BME280;22245;52.832;13.816;2024-01-15T09:06:07;98767.13;;;1.40;93.84
17764;BME280;22245;52.832;13.816;2024-01-15T09:09:30;98777.50;;;1.41;93.23
17764;BME280;22245;52.832;13.816;2024-01-15T09:12:52;98765.91;;;1.44;92.60
17764;BME280;22245;52.832;13.816;2024-01-15T09:16:14;98777.38;;;1.43;91.25
17764;BME280;22245;52.832;13.816;2024-01-15T09:19:36;98765.91;;;1.44;90.98
17764;BME280;22245;52.832;13.816;2024-01-15T09:22:59;98794.78;;;1.44;91.80
17764;BME280;22245;52.832;13.816;2024-01-15T09:26:22;98782.97;;;1.27;96.63
17764;BME280;22245;52.832;13.816;2024-01-15T09:29:44;98788.38;;;1.14;97.81
17764;BME280;22245;52.832;13.816;2024-01-15T09:33:06;98784.06;;;1.13;99.69
17764;BME280;22245;52.832;13.816;2024-01-15T09:36:28;98783.13;;;1.14;99.82
17764;BME280;22245;52.832;13.816;2024-01-15T09:39:50;98799.53;;;1.05;100.00
17764;BME280;22245;52.832;13.816;2024-01-15T09:43:14;98788.59;;;1.11;99.19
17764;BME280;22245;52.832;13.816;2024-01-15T09:46:36;98780.97;;;1.19;98.85
17764;BME280;22245;52.832;13.816;2024-01-15T09:49:58;98793.13;;;1.20;98.19
17764;BME280;22245;52.832;13.816;2024-01-15T09:53:21;98797.19;;;1.24;97.69
17764;BME280;22245;52.832;13.816;2024-01-15T09:56:42;98800.75;;;1.23;96.76
17764;BME280;22245;52.832;13.816;2024-01-15T10:00:09;98795.28;;;1.26;96.22
17764;BME280;22245;52.832;13.816;2024-01-15T10:03:32;98776.44;;;1.33;96.46
17764;BME280;22245;52.832;13.816;2024-01-15T10:06:55;98782.84;;;1.40;95.88
17764;BME280;22245;52.832;13.816;2024-01-15T10:10:17;98776.16;;;1.47;95.53
17764;BME280;22245;52.832;13.816;2024-01-15T10:13:39;98788.81;;;1.53;94.53
17764;BME280;22245;52.832;13.816;2024-01-15T10:17:11;98790.25;;;1.57;94.31
17764;BME280;22245;52.832;13.816;2024-01-15T10:20:33;98806.09;;;1.56;93.61
17764;BME280;22245;52.832;13.816;2024-01-15T10:23:54;98777.00;;;1.59;93.82
17764;BME280;22245;52.832;13.816;2024-01-15T10:27:15;98772.94;;;1.55;95.04
17764;BME280;22245;52.832;13.816;2024-01-15T10:30:37;98779.03;;;1.55;94.72
17764;BME280;22245;52.832;13.816;2024-01-15T10:34:11;98781.53;;;1.57;95.56
17764;BME280;22245;52.832;13.816;2024-01-15T10:37:36;98788.44;;;1.58;95.30
17764;BME280;22245;52.832;13.816;2024-01-15T10:40:57;98796.19;;;1.59;94.52
17764;BME280;22245;52.832;13.816;2024-01-15T10:44:18;98804.91;;;1.60;94.20
17764;BME280;22245;52.832;13.816;2024-01-15T10:47:40;98824.25;;;1.36;97.10
17764;BME280;22245;52.832;13.816;2024-01-15T10:51:04;98792.78;;;1.13;100.00
17764;BME280;22245;52.832;13.816;2024-01-15T10:54:31;98809.34;;;1.14;100.00
17764;BME280;22245;52.832;13.816;2024-01-15T10:57:53;98797.28;;;1.23;100.00
17764;BME280;22245;52.832;13.816;2024-01-15T11:01:17;98795.13;;;1.28;100.00
17764;BME280;22245;52.832;13.816;2024-01-15T11:04:40;98785.16;;;1.33;98.92
17764;BME280;22245;52.832;13.816;2024-01-15T11:08:05;98787.84;;;1.43;97.95
17764;BME280;22245;52.832;13.816;2024-01-15T11:11:27;98795.94;;;1.51;95.34
17764;BME280;22245;52.832;13.816;2024-01-15T11:14:49;98785.47;;;1.63;93.60
17764;BME280;22245;52.832;13.816;2024-01-15T11:18:11;98794.75;;;1.67;91.31
17764;BME280;22245;52.832;13.816;2024-01-15T11:21:41;98784.97;;;1.69;90.16
17764;BME280;22245;52.832;13.816;2024-01-15T11:25:13;98776.03;;;1.71;89.15
17764;BME280;22245;52.832;13.816;2024-01-15T11:28:54;98783.41;;;1.78;90.09
17764;BME280;22245;52.832;13.816;2024-01-15T11:32:16;98770.59;;;1.84;89.15
17764;BME280;22245;52.832;13.816;2024-01-15T11:35:49;98786.69;;;1.91;87.89
17764;BME280;22245;52.832;13.816;2024-01-15T11:39:40;98789.66;;;1.98;87.62
17764;BME280;22245;52.832;13.816;2024-01-15T11:43:05;98776.66;;;1.96;84.94
17764;BME280;22245;52.832;13.816;2024-01-15T11:46:33;98785.84;;;2.02;85.56
17764;BME280;22245;52.832;13.816;2024-01-15T11:50:00;98777.72;;;2.05;84.92
17764;BME280;22245;52.832;13.816;2024-01-15T11:53:32;98794.06;;;2.09;84.37
17764;BME280;22245;52.832;13.816;2024-01-15T11:56:57;98792.00;;;2.12;83.94
17764;BME280;22245;52.832;13.816;2024-01-15T12:00:22;98790.06;;;2.14;82.90
17764;BME280;22245;52.832;13.816;2024-01-15T12:03:44;98800.22;;;2.19;83.87
17764;BME280;22245;52.832;13.816;2024-01-15T12:07:08;98789.47;;;2.22;80.94
17764;BME280;22245;52.832;13.816;2024-01-15T12:10:30;98801.28;;;2.16;80.55
17764;BME280;22245;52.832;13.816;2024-01-15T12:13:52;98804.06;;;2.15;79.19
17764;BME280;22245;52.832;13.816;2024-01-15T12:17:16;98814.66;;;2.13;79.05
17764;BME280;22245;52.832;13.816;2024-01-15T12:20:37;98805.59;;;2.17;80.72
17764;BME280;22245;52.832;13.816;2024-01-15T12:23:59;98815.13;;;2.19;80.56
17764;BME280;22245;52.832;13.816;2024-01-15T12:27:21;98812.69;;;2.27;79.51
17764;BME280;22245;52.832;13.816;2024-01-15T12:30:42;98828.25;;;2.30;79.82
17764;BME280;22245;52.832;13.816;2024-01-15T12:34:11;98812.13;;;2.23;80.61
17764;BME280;22245;52.832;13.816;2024-01-15T12:37:35;98826.22;;;2.22;80.62
17764;BME280;22245;52.832;13.816;2024-01-15T12:40:56;98813.09;;;2.22;81.65
17764;BME280;22245;52.832;13.816;2024-01-15T12:44:17;98813.56;;;2.27;82.78
17764;BME280;22245;52.832;13.816;2024-01-15T12:47:39;98817.72;;;2.30;82.18
17764;BME280;22245;52.832;13.816;2024-01-15T12:51:05;98856.44;;;2.16;82.31
17764;BME280;22245;52.832;13.816;2024-01-15T12:54:27;98845.72;;;2.08;83.54
17764;BME280;22245;52.832;13.816;2024-01-15T12:57:49;98844.81;;;1.98;84.53
17764;BME280;22245;52.832;13.816;2024-01-15T13:01:13;98855.81;;;1.92;86.19
17764;BME280;22245;52.832;13.816;2024-01-15T13:04:35;98875.34;;;1.87;86.68
17764;BME280;22245;52.832;13.816;2024-01-15T13:07:58;98885.84;;;1.87;87.16
17764;BME280;22245;52.832;13.816;2024-01-15T13:11:20;98905.19;;;1.86;88.19
17764;BME280;22245;52.832;13.816;2024-01-15T13:14:42;98921.91;;;1.74;91.12
17764;BME280;22245;52.832;13.816;2024-01-15T13:18:04;98944.19;;;0.98;100.00
17764;BME280;22245;52.832;13.816;2024-01-15T13:21:25;98918.84;;;0.75;100.00
17764;BME280;22245;52.832;13.816;2024-01-15T13:24:48;98934.56;;;0.26;100.00
17764;BME280;22245;52.832;13.816;2024-01-15T13:28:10;98939.97;;;0.11;100.00
17764;BME280;22245;52.832;13.816;2024-01-15T13:31:31;98934.66;;;0.00;100.00
17764;BME280;22245;52.832;13.816;2024-01-15T13:34:54;98932.16;;;-0.15;100.00
17764;BME280;22245;52.832;13.816;2024-01-15T13:38:15;98940.22;;;-0.18;100.00
17764;BME280;22245;52.832;13.816;2024-01-15T13:41:39;98933.84;;;-0.13;100.00
17764;BME280;22245;52.832;13.816;2024-01-15T13:45:00;98938.84;;;-0.10;100.00
17764;BME280;22245;52.832;13.816;2024-01-15T13:48:23;98946.91;;;-0.01;100.00
17764;BME280;22245;52.832;13.816;2024-01-15T13:51:44;98951.09;;;0.02;100.00
17764;BME280;22245;52.832;13.816;2024-01-15T13:55:07;98950.16;;;0.03;100.00
17764;BME280;22245;52.832;13.816;2024-01-15T13:58:31;98967.19;;;0.09;100.00
17764;BME280;22245;52.832;13.816;2024-01-15T14:01:53;98970.94;;;0.18;100.00
17764;BME280;22245;52.832;13.816;2024-01-15T14:05:14;98988.22;;;0.20;100.00
17764;BME280;22245;52.832;13.816;2024-01-15T14:08:37;98992.53;;;0.21;100.00
17764;BME280;22245;52.832;13.816;2024-01-15T14:11:58;98991.34;;;0.25;100.00
17764;BME280;22245;52.832;13.816;2024-01-15T14:15:21;98997.91;;;0.31;100.00
17764;BME280;22245;52.832;13.816;2024-01-15T14:18:43;98994.03;;;0.37;100.00
17764;BME280;22245;52.832;13.816;2024-01-15T14:22:05;98996.97;;;0.32;97.53
17764;BME280;22245;52.832;13.816;2024-01-15T14:25:27;99006.50;;;0.33;97.47
17764;BME280;22245;52.832;13.816;2024-01-15T14:28:48;99005.47;;;0.36;97.19
17764;BME280;22245;52.832;13.816;2024-01-15T14:32:12;99021.19;;;0.36;97.20
17764;BME280;22245;52.832;13.816;2024-01-15T14:35:34;99029.66;;;0.39;96.35
17764;BME280;22245;52.832;13.816;2024-01-15T14:38:56;99031.53;;;0.37;96.14
17764;BME280;22245;52.832;13.816;2024-01-15T14:42:20;99027.78;;;0.41;95.87
17764;BME280;22245;52.832;13.816;2024-01-15T14:45:41;99036.03;;;0.35;94.95
17764;BME280;22245;52.832;13.816;2024-01-15T14:49:07;99043.91;;;0.35;94.39
17764;BME280;22245;52.832;13.816;2024-01-15T14:52:29;99053.34;;;0.38;93.65
17764;BME280;22245;52.832;13.816;2024-01-15T14:55:50;99064.44;;;0.41;92.75
17764;BME280;22245;52.832;13.816;2024-01-15T14:59:14;99069.03;;;0.38;92.40
17764;BME280;22245;52.832;13.816;2024-01-15T15:02:35;99090.09;;;0.36;91.38
17764;BME280;22245;52.832;13.816;2024-01-15T15:05:59;99092.72;;;0.36;91.62
17764;BME280;22245;52.832;13.816;2024-01-15T15:09:22;99095.22;;;0.38;92.48
17764;BME280;22245;52.832;13.816;2024-01-15T15:12:43;99103.19;;;0.36;90.97
17764;BME280;22245;52.832;13.816;2024-01-15T15:16:05;99110.31;;;0.34;90.37
17764;BME280;22245;52.832;13.816;2024-01-15T15:19:27;99112.94;;;0.34;90.45
17764;BME280;22245;52.832;13.816;2024-01-15T15:22:51;99121.50;;;0.36;89.97
17764;BME280;22245;52.832;13.816;2024-01-15T15:26:15;99131.16;;;0.36;89.94
17764;BME280;22245;52.832;13.816;2024-01-15T15:29:37;99138.59;;;0.29;88.88
17764;BME280;22245;52.832;13.816;2024-01-15T15:32:58;99142.78;;;0.19;89.15
17764;BME280;22245;52.832;13.816;2024-01-15T15:36:20;99134.28;;;0.15;88.94
17764;BME280;22245;52.832;13.816;2024-01-15T15:39:43;99153.28;;;0.19;90.13
17764;BME280;22245;52.832;13.816;2024-01-15T15:43:05;99157.78;;;0.17;88.62
17764;BME280;22245;52.832;13.816;2024-01-15T15:46:27;99167.59;;;0.13;89.53
17764;BME280;22245;52.832;13.816;2024-01-15T15:49:48;99177.25;;;0.12;89.06
17764;BME280;22245;52.832;13.816;2024-01-15T15:53:11;99176.31;;;0.13;88.28
17764;BME280;22245;52.832;13.816;2024-01-15T15:56:34;99183.22;;;0.14;88.69
17764;BME280;22245;52.832;13.816;2024-01-15T15:59:58;99189.59;;;0.10;89.42
17764;BME280;22245;52.832;13.816;2024-01-15T16:03:20;99190.03;;;0.04;88.51
17764;BME280;22245;52.832;13.816;2024-01-15T16:06:42;99203.00;;;0.06;88.48
17764;BME280;22245;52.832;13.816;2024-01-15T16:10:07;99211.16;;;0.01;88.30
17764;BME280;22245;52.832;13.816;2024-01-15T16:13:31;99211.97;;;0.02;88.96
17764;BME280;22245;52.832;13.816;2024-01-15T16:16:52;99223.81;;;-0.06;88.63
17764;BME280;22245;52.832;13.816;2024-01-15T16:20:37;99223.81;;;-0.06;88.70
17764;BME280;22245;52.832;13.816;2024-01-15T16:24:18;99224.75;;;-0.07;88.80
17764;BME280;22245;52.832;13.816;2024-01-15T16:27:57;99235.31;;;-0.08;88.50
17764;BME280;22245;52.832;13.816;2024-01-15T16:31:20;99245.78;;;-0.08;88.96
17764;BME280;22245;52.832;13.816;2024-01-15T16:34:41;99239.91;;;-0.12;89.69
17764;BME280;22245;52.832;13.816;2024-01-15T16:38:03;99247.97;;;-0.15;89.38
17764;BME280;22245;52.832;13.816;2024-01-15T16:41:24;99250.38;;;-0.12;89.77
17764;BME280;22245;52.832;13.816;2024-01-15T16:44:46;99255.50;;;-0.10;88.18
17764;BME280;22245;52.832;13.816;2024-01-15T16:48:09;99253.97;;;-0.27;88.50
17764;BME280;22245;52.832;13.816;2024-01-15T16:51:31;99267.72;;;-0.24;88.58
17764;BME280;22245;52.832;13.816;2024-01-15T16:54:52;99281.81;;;-0.26;89.33
17764;BME280;22245;52.832;13.816;2024-01-15T16:58:13;99280.13;;;-0.27;87.88
17764;BME280;22245;52.832;13.816;2024-01-15T17:01:35;99292.59;;;-0.31;87.75
17764;BME280;22245;52.832;13.816;2024-01-15T17:04:57;99288.66;;;-0.38;88.10
17764;BME280;22245;52.832;13.816;2024-01-15T17:08:19;99300.16;;;-0.41;88.69
17764;BME280;22245;52.832;13.816;2024-01-15T17:11:40;99303.72;;;-0.42;88.61
17764;BME280;22245;52.832;13.816;2024-01-15T17:15:03;99310.16;;;-0.33;88.89
17764;BME280;22245;52.832;13.816;2024-01-15T17:18:24;99310.44;;;-0.38;89.16
17764;BME280;22245;52.832;13.816;2024-01-15T17:21:47;99310.72;;;-0.42;88.11
17764;BME280;22245;52.832;13.816;2024-01-15T17:25:08;99318.13;;;-0.49;89.36
17764;BME280;22245;52.832;13.816;2024-01-15T17:28:30;99309.34;;;-0.48;89.12
17764;BME280;22245;52.832;13.816;2024-01-15T17:31:51;99321.00;;;-0.54;89.48
17764;BME280;22245;52.832;13.816;2024-01-15T17:35:13;99323.63;;;-0.54;88.72
17764;BME280;22245;52.832;13.816;2024-01-15T17:38:36;99315.78;;;-0.54;88.35
17764;BME280;22245;52.832;13.816;2024-01-15T17:41:58;99324.69;;;-0.56;88.50
17764;BME280;22245;52.832;13.816;2024-01-15T17:45:19;99323.06;;;-0.59;87.45